Time;durP1;ratioP1;P1;durP2;ratioP2;P2;SDS_P1;SDS_P2;PMS_P1;PMS_P2;Temp;Humidity;BMP_temperature;BMP_pressure;BME280_temperature;BME280_humidity;BME280_pressure;Samples;Min_cycle;Max_cycle;Signal;HPM_P1;HPM_P2
2022/07/08 00:00:06;;;;;;;0.45;0.45;;;25.90;50.30;;;;;;5046361;28;20037;-62
2022/07/08 00:02:34;;;;;;;0.50;0.50;;;25.90;50.30;;;;;;5046057;28;20073;-62
2022/07/08 00:05:01;;;;;;;0.80;0.60;;;25.90;50.30;;;;;;5046184;28;20099;-62
2022/07/08 00:07:28;;;;;;;0.50;0.50;;;25.90;50.30;;;;;;5046775;28;20521;-62
2022/07/08 00:09:55;;;;;;;0.50;0.50;;;25.90;50.40;;;;;;5045738;28;20080;-62
2022/07/08 00:12:22;;;;;;;0.50;0.50;;;25.90;50.30;;;;;;5046389;28;20099;-62
2022/07/08 00:14:50;;;;;;;0.40;0.40;;;25.90;50.40;;;;;;5046588;28;20045;-62
2022/07/08 00:17:17;;;;;;;1.58;0.50;;;25.90;50.40;;;;;;5046412;28;20076;-62
2022/07/08 00:19:44;;;;;;;0.45;0.45;;;25.80;50.30;;;;;;5028142;28;20140;-61
2022/07/08 00:22:11;;;;;;;1.02;0.60;;;25.90;50.40;;;;;;5045800;28;20048;-62
2022/07/08 00:24:38;;;;;;;0.52;0.52;;;25.90;50.40;;;;;;5046157;28;20048;-62
2022/07/08 00:27:05;;;;;;;0.45;0.45;;;25.90;50.40;;;;;;5046296;28;20067;-62
2022/07/08 00:29:33;;;;;;;0.43;0.43;;;25.90;50.30;;;;;;5045780;28;20053;-62
2022/07/08 00:32:00;;;;;;;0.63;0.63;;;25.90;50.30;;;;;;5046606;28;20130;-62
2022/07/08 00:34:27;;;;;;;0.50;0.50;;;25.90;50.30;;;;;;5045047;28;20053;-62
2022/07/08 00:36:54;;;;;;;0.40;0.40;;;25.90;50.30;;;;;;5046078;28;20084;-64
2022/07/08 00:39:21;;;;;;;2.13;0.63;;;25.90;50.20;;;;;;5045737;28;20499;-62
2022/07/08 00:41:48;;;;;;;0.40;0.40;;;25.90;50.20;;;;;;5045588;28;20132;-62
2022/07/08 00:44:16;;;;;;;0.45;0.45;;;25.90;50.30;;;;;;5045960;28;20122;-62
2022/07/08 00:46:43;;;;;;;0.40;0.40;;;26.00;50.30;;;;;;5045534;28;20072;-62
2022/07/08 00:49:10;;;;;;;0.75;0.60;;;26.00;50.30;;;;;;5044171;28;20060;-62
2022/07/08 00:51:39;;;;;;;0.40;0.40;;;26.00;50.30;;;;;;5045158;28;20056;-62
2022/07/08 00:54:07;;;;;;;0.50;0.50;;;26.00;50.30;;;;;;5045725;28;20079;-62
2022/07/08 00:56:34;;;;;;;0.73;0.52;;;25.90;50.30;;;;;;5045651;28;20099;-62
2022/07/08 00:59:01;;;;;;;0.40;0.40;;;25.90;50.20;;;;;;5044087;28;20365;-63
2022/07/08 01:01:29;;;;;;;0.50;0.50;;;25.90;50.20;;;;;;5046068;28;20110;-63
2022/07/08 01:03:56;;;;;;;1.25;0.57;;;25.90;50.20;;;;;;5044946;28;20221;-62
2022/07/08 01:06:23;;;;;;;0.52;0.52;;;25.90;50.30;;;;;;5045270;28;20041;-62
2022/07/08 01:08:51;;;;;;;0.47;0.30;;;25.90;50.20;;;;;;5044845;28;20106;-62
2022/07/08 01:11:18;;;;;;;0.50;0.50;;;25.90;50.20;;;;;;5045122;28;20403;-62
2022/07/08 01:13:46;;;;;;;0.90;0.68;;;25.90;50.30;;;;;;5045409;28;20110;-62
2022/07/08 01:16:14;;;;;;;0.50;0.50;;;25.90;50.20;;;;;;5045356;28;20044;-62
2022/07/08 01:18:42;;;;;;;0.45;0.45;;;25.90;50.20;;;;;;5045510;28;20106;-62
2022/07/08 01:21:09;;;;;;;0.50;0.50;;;25.90;50.20;;;;;;5044996;28;20580;-62
2022/07/08 01:23:36;;;;;;;0.40;0.40;;;25.90;50.20;;;;;;5044320;28;20053;-63
2022/07/08 01:26:12;;;;;;;0.30;0.30;;;25.90;50.20;;;;;;5045689;28;20045;-62
2022/07/08 01:28:41;;;;;;;0.82;0.82;;;25.90;50.30;;;;;;5043621;28;20148;-63
2022/07/08 01:31:08;;;;;;;0.63;0.63;;;25.90;50.30;;;;;;5045418;28;20517;-62
2022/07/08 01:33:36;;;;;;;0.20;0.20;;;25.90;50.30;;;;;;5044676;28;20045;-63
2022/07/08 01:36:04;;;;;;;0.50;0.50;;;25.90;50.30;;;;;;5045652;28;20286;-62
2022/07/08 01:38:31;;;;;;;0.45;0.45;;;25.90;50.30;;;;;;5045271;28;20080;-63
2022/07/08 01:40:59;;;;;;;0.85;0.70;;;25.90;50.30;;;;;;5044700;28;20041;-63
2022/07/08 01:43:27;;;;;;;0.40;0.40;;;25.90;50.30;;;;;;5044771;28;20094;-63
2022/07/08 01:45:54;;;;;;;0.50;0.50;;;25.90;50.30;;;;;;5045409;28;20344;-63
2022/07/08 01:48:21;;;;;;;0.40;0.40;;;25.90;50.30;;;;;;5044909;28;20328;-62
2022/07/08 01:50:48;;;;;;;0.30;0.30;;;25.90;50.30;;;;;;5044882;28;20063;-62
2022/07/08 01:53:15;;;;;;;0.50;0.50;;;25.90;50.30;;;;;;5047157;28;20049;-62
2022/07/08 01:55:42;;;;;;;0.40;0.40;;;25.90;50.30;;;;;;5047301;28;20548;-62
2022/07/08 01:58:09;;;;;;;0.40;0.40;;;25.90;50.30;;;;;;5048117;28;20077;-61
2022/07/08 02:00:37;;;;;;;1.40;0.50;;;25.90;50.40;;;;;;5048933;28;20504;-64
2022/07/08 02:03:04;;;;;;;0.32;0.32;;;25.90;50.40;;;;;;5048806;28;20045;-62
2022/07/08 02:05:34;;;;;;;1.15;0.40;;;25.90;50.30;;;;;;5048298;28;20598;-62
2022/07/08 02:08:04;;;;;;;0.30;0.30;;;25.90;50.30;;;;;;5047492;28;20133;-62
2022/07/08 02:12:18;;;;;;;0.50;0.50;;;25.90;50.30;;;;;;5046961;28;20140;-62
2022/07/08 02:13:20;;;;;;;0.30;0.30;;;25.90;50.30;;;;;;5048357;28;20041;-62
2022/07/08 02:15:47;;;;;;;0.30;0.30;;;25.90;50.30;;;;;;5048210;28;20494;-62
2022/07/08 02:18:14;;;;;;;0.50;0.50;;;25.90;50.20;;;;;;5047728;28;20186;-62
2022/07/08 02:20:42;;;;;;;0.43;0.43;;;25.90;50.20;;;;;;5048060;28;20056;-62
2022/07/08 02:23:09;;;;;;;0.40;0.40;;;25.90;50.20;;;;;;5048160;28;20561;-62
2022/07/08 02:25:36;;;;;;;0.30;0.30;;;25.90;50.20;;;;;;5048154;28;20099;-62
2022/07/08 02:28:03;;;;;;;0.65;0.40;;;25.90;50.20;;;;;;5048281;28;20091;-62
2022/07/08 02:30:30;;;;;;;0.30;0.30;;;25.90;50.20;;;;;;5047975;28;20048;-62
2022/07/08 02:32:57;;;;;;;0.57;0.57;;;25.90;50.20;;;;;;5048247;28;20405;-62
2022/07/08 02:35:25;;;;;;;0.43;0.43;;;25.90;50.20;;;;;;5048126;28;20049;-62
2022/07/08 02:37:52;;;;;;;0.40;0.40;;;25.90;50.20;;;;;;5048234;28;20572;-62
2022/07/08 02:40:19;;;;;;;0.30;0.30;;;25.90;50.20;;;;;;5048005;28;20123;-62
2022/07/08 02:42:46;;;;;;;0.32;0.32;;;25.90;50.30;;;;;;5048484;28;20079;-62
2022/07/08 02:45:13;;;;;;;0.47;0.47;;;25.90;50.20;;;;;;5047692;28;20052;-62
2022/07/08 02:47:40;;;;;;;0.65;0.65;;;25.90;50.20;;;;;;5048143;28;20387;-63
2022/07/08 02:50:08;;;;;;;0.40;0.40;;;25.90;50.30;;;;;;5047446;28;20406;-62
2022/07/08 02:52:35;;;;;;;0.40;0.40;;;25.90;50.30;;;;;;5047274;28;20380;-62
2022/07/08 02:55:03;;;;;;;0.38;0.38;;;25.90;50.20;;;;;;5047593;28;20497;-62
2022/07/08 02:57:30;;;;;;;0.28;0.28;;;25.90;50.20;;;;;;5047492;28;20485;-62
2022/07/08 02:59:57;;;;;;;0.40;0.40;;;25.90;50.20;;;;;;5047347;28;20040;-62
2022/07/08 03:02:25;;;;;;;0.40;0.38;;;25.90;50.80;;;;;;5047377;28;20467;-62
2022/07/08 03:04:53;;;;;;;0.40;0.40;;;25.90;50.30;;;;;;5046538;28;20256;-62
2022/07/08 03:07:21;;;;;;;0.75;0.60;;;25.90;50.30;;;;;;5047990;28;20049;-62
2022/07/08 03:09:48;;;;;;;0.40;0.40;;;25.90;50.30;;;;;;5047231;28;20075;-64
2022/07/08 03:12:15;;;;;;;0.30;0.30;;;25.90;50.30;;;;;;5047422;28;20076;-62
2022/07/08 03:14:42;;;;;;;0.35;0.35;;;25.90;50.30;;;;;;5048021;28;20128;-62
2022/07/08 03:17:10;;;;;;;0.55;0.40;;;25.90;50.30;;;;;;5047632;28;20383;-62
2022/07/08 03:19:37;;;;;;;0.47;0.47;;;25.80;50.30;;;;;;5046960;28;20045;-62
2022/07/08 03:22:04;;;;;;;0.30;0.30;;;25.90;50.40;;;;;;5047284;28;20398;-62
2022/07/08 03:24:31;;;;;;;0.30;0.30;;;25.90;50.40;;;;;;5047766;28;20135;-62
2022/07/08 03:26:59;;;;;;;0.43;0.40;;;25.90;50.40;;;;;;5046816;28;20080;-63
2022/07/08 03:29:26;;;;;;;0.70;0.55;;;25.90;50.40;;;;;;5046896;28;20502;-62
2022/07/08 03:31:53;;;;;;;0.50;0.50;;;25.90;50.40;;;;;;5045875;28;20370;-62
2022/07/08 03:34:20;;;;;;;0.50;0.50;;;25.90;50.40;;;;;;5045683;28;20409;-62
2022/07/08 03:36:48;;;;;;;0.45;0.45;;;25.90;50.40;;;;;;5034258;28;20104;-62
2022/07/08 03:39:15;;;;;;;0.32;0.32;;;25.90;50.40;;;;;;5027331;28;20075;-62
2022/07/08 03:41:42;;;;;;;0.80;0.30;;;25.90;50.40;;;;;;5026840;28;20136;-62
2022/07/08 03:44:10;;;;;;;0.40;0.40;;;25.90;50.30;;;;;;5026065;28;20081;-62
2022/07/08 03:46:37;;;;;;;0.50;0.50;;;25.90;50.30;;;;;;5026789;28;20087;-62
2022/07/08 03:49:04;;;;;;;0.30;0.30;;;25.90;50.30;;;;;;5034281;28;20510;-62
2022/07/08 03:51:31;;;;;;;0.40;0.40;;;25.90;50.30;;;;;;5046111;28;20044;-62
2022/07/08 03:53:58;;;;;;;0.35;0.35;;;25.90;50.20;;;;;;5045455;28;20123;-62
2022/07/08 03:56:26;;;;;;;0.75;0.50;;;25.90;50.20;;;;;;5046777;28;20056;-62
2022/07/08 03:58:53;;;;;;;0.75;0.47;;;25.90;50.20;;;;;;5045748;28;20052;-62
2022/07/08 04:01:20;;;;;;;0.45;0.45;;;26.00;50.30;;;;;;5045645;28;20575;-62
2022/07/08 04:03:47;;;;;;;0.30;0.30;;;26.00;50.30;;;;;;5046501;28;20135;-62
2022/07/08 04:06:15;;;;;;;0.32;0.32;;;26.00;50.30;;;;;;5045879;28;20512;-63
2022/07/08 04:08:42;;;;;;;0.30;0.30;;;26.00;50.20;;;;;;5046489;28;20459;-63
2022/07/08 04:11:10;;;;;;;0.38;0.30;;;26.00;50.20;;;;;;5045739;28;20525;-62
2022/07/08 04:13:39;;;;;;;0.30;0.30;;;26.00;50.20;;;;;;5046633;28;20102;-62
2022/07/08 04:16:12;;;;;;;0.35;0.35;;;26.00;50.20;;;;;;5045910;28;20044;-62
2022/07/08 04:18:41;;;;;;;0.40;0.40;;;26.00;50.10;;;;;;5045932;28;20153;-62
2022/07/08 04:21:09;;;;;;;0.30;0.30;;;26.00;50.10;;;;;;5045070;28;20076;-63
2022/07/08 04:23:37;;;;;;;0.30;0.30;;;26.00;50.10;;;;;;5045470;28;20541;-62
2022/07/08 04:26:05;;;;;;;0.40;0.40;;;26.00;50.10;;;;;;5045515;28;20045;-62
2022/07/08 04:28:33;;;;;;;0.30;0.30;;;26.00;50.10;;;;;;5044313;28;20383;-62
2022/07/08 04:31:00;;;;;;;0.30;0.30;;;26.00;50.00;;;;;;5045677;28;20076;-62
2022/07/08 04:33:28;;;;;;;0.30;0.30;;;26.00;50.00;;;;;;5046274;28;20055;-62
2022/07/08 04:35:55;;;;;;;0.35;0.35;;;26.00;50.00;;;;;;5045979;28;20110;-62
2022/07/08 04:38:22;;;;;;;0.50;0.50;;;26.00;50.00;;;;;;5044473;28;20485;-62
2022/07/08 04:40:49;;;;;;;0.30;0.30;;;26.00;50.00;;;;;;5045683;28;20308;-62
2022/07/08 04:43:16;;;;;;;0.50;0.50;;;26.00;49.90;;;;;;5038270;28;20190;-62
2022/07/08 04:45:48;;;;;;;0.45;0.45;;;26.00;49.90;;;;;;5032251;28;20510;-62
2022/07/08 04:48:15;;;;;;;0.40;0.40;;;26.00;49.90;;;;;;5065293;28;20119;-62
2022/07/08 04:50:42;;;;;;;0.30;0.30;;;26.00;49.90;;;;;;5046417;28;20045;-62
2022/07/08 04:53:09;;;;;;;0.40;0.40;;;26.10;49.90;;;;;;5042342;28;20048;-62
2022/07/08 04:55:37;;;;;;;0.43;0.43;;;26.10;49.90;;;;;;5043993;28;20487;-62
2022/07/08 04:58:04;;;;;;;0.30;0.30;;;26.10;50.40;;;;;;5041342;28;20037;-62
2022/07/08 05:00:33;;;;;;;0.30;0.25;;;26.10;49.90;;;;;;5043791;28;20040;-62
2022/07/08 05:03:00;;;;;;;0.55;0.55;;;26.10;49.80;;;;;;5031860;28;20462;-62
2022/07/08 05:05:30;;;;;;;0.50;0.40;;;26.10;49.80;;;;;;5034637;28;20047;-62
2022/07/08 05:07:58;;;;;;;0.47;0.47;;;26.10;49.80;;;;;;5036709;28;20046;-61
2022/07/08 05:10:26;;;;;;;0.60;0.52;;;26.10;49.90;;;;;;5041352;28;20450;-62
2022/07/08 05:12:55;;;;;;;1.10;0.50;;;26.00;49.80;;;;;;5046495;28;20044;-62
2022/07/08 05:15:22;;;;;;;0.55;0.55;;;26.00;49.90;;;;;;5044213;28;20094;-61
2022/07/08 05:17:52;;;;;;;1.48;0.70;;;25.80;50.00;;;;;;5044873;28;20045;-61
2022/07/08 05:20:20;;;;;;;0.80;0.80;;;25.70;50.40;;;;;;5048716;28;20068;-62
2022/07/08 05:22:48;;;;;;;0.73;0.73;;;25.40;50.70;;;;;;5049030;28;20491;-62
2022/07/08 05:25:15;;;;;;;0.80;0.80;;;25.10;50.50;;;;;;5040707;28;20114;-62
2022/07/08 05:27:42;;;;;;;1.20;1.10;;;24.80;50.00;;;;;;5037392;28;20057;-61
2022/07/08 05:30:11;;;;;;;0.80;0.80;;;24.50;49.70;;;;;;5054594;28;20131;-62
2022/07/08 05:32:38;;;;;;;2.15;1.20;;;24.10;49.50;;;;;;5039189;28;20045;-62
2022/07/08 05:35:06;;;;;;;3.13;1.52;;;23.80;49.00;;;;;;5034684;28;20042;-61
2022/07/08 05:37:37;;;;;;;0.93;0.93;;;23.50;49.10;;;;;;5036057;28;20065;-62
2022/07/08 05:40:06;;;;;;;0.98;0.98;;;23.20;49.20;;;;;;5038749;28;20103;-62
2022/07/08 05:42:34;;;;;;;1.92;0.80;;;22.80;49.20;;;;;;5036714;28;20052;-62
2022/07/08 05:45:01;;;;;;;3.45;1.38;;;22.60;49.10;;;;;;5041250;28;20197;-62
2022/07/08 05:47:28;;;;;;;1.55;1.45;;;22.30;49.40;;;;;;5042836;28;20395;-63
2022/07/08 05:49:55;;;;;;;1.25;1.20;;;22.10;50.00;;;;;;5040856;28;20049;-62
2022/07/08 05:52:23;;;;;;;1.40;1.30;;;21.90;50.20;;;;;;5042134;28;20146;-62
2022/07/08 05:54:50;;;;;;;1.00;1.00;;;21.80;51.70;;;;;;5039659;28;20460;-62
2022/07/08 05:57:18;;;;;;;1.00;1.00;;;21.60;52.10;;;;;;5042913;28;20436;-62
2022/07/08 05:59:45;;;;;;;1.30;1.30;;;21.50;51.70;;;;;;5042162;28;20045;-62
2022/07/08 06:02:13;;;;;;;1.20;1.20;;;21.50;51.70;;;;;;5041491;28;20139;-63
2022/07/08 06:04:40;;;;;;;1.35;1.25;;;21.40;51.90;;;;;;5041814;28;20443;-62
2022/07/08 06:07:07;;;;;;;3.00;1.58;;;21.30;51.20;;;;;;5039216;28;20073;-62
2022/07/08 06:09:37;;;;;;;1.38;1.27;;;21.20;51.50;;;;;;5042997;28;20057;-62
2022/07/08 06:12:05;;;;;;;1.60;1.23;;;21.10;51.20;;;;;;5044725;28;20049;-62
2022/07/08 06:14:32;;;;;;;1.45;1.40;;;21.00;51.90;;;;;;5037181;28;20409;-62
2022/07/08 06:16:59;;;;;;;2.10;1.35;;;20.90;52.30;;;;;;5038679;28;20049;-62
2022/07/08 06:19:27;;;;;;;2.80;1.25;;;20.90;52.10;;;;;;5040827;28;20519;-62
2022/07/08 06:21:55;;;;;;;1.67;1.58;;;20.80;51.80;;;;;;5036817;28;20051;-62
2022/07/08 06:24:23;;;;;;;2.25;1.65;;;20.80;52.10;;;;;;5068967;28;20045;-62
2022/07/08 06:26:51;;;;;;;2.10;1.40;;;20.80;51.90;;;;;;5041542;28;20099;-62
2022/07/08 06:29:19;;;;;;;1.63;1.50;;;20.70;51.90;;;;;;5038796;28;20072;-62
2022/07/08 06:31:46;;;;;;;1.80;1.70;;;20.60;52.30;;;;;;5041678;28;20497;-62
2022/07/08 06:34:15;;;;;;;1.63;1.52;;;20.60;52.50;;;;;;5039408;28;20071;-62
2022/07/08 06:36:42;;;;;;;1.42;1.33;;;20.60;52.40;;;;;;5045330;28;20056;-62
2022/07/08 06:39:09;;;;;;;1.55;1.45;;;20.60;52.20;;;;;;5041782;28;20517;-62
2022/07/08 06:41:37;;;;;;;1.77;1.67;;;20.60;52.10;;;;;;5042025;28;20471;-63
2022/07/08 06:44:04;;;;;;;3.05;1.45;;;20.60;51.80;;;;;;5043422;28;20114;-63
2022/07/08 06:46:32;;;;;;;1.65;1.55;;;20.50;51.70;;;;;;5046504;28;20094;-63
2022/07/08 06:48:59;;;;;;;1.50;1.40;;;20.40;52.10;;;;;;5040197;28;20556;-62
2022/07/08 06:51:27;;;;;;;1.40;1.40;;;20.40;52.90;;;;;;5041934;28;20106;-63
2022/07/08 06:56:42;;;;;;;1.73;1.50;;;20.40;52.40;;;;;;5045747;28;20041;-62
2022/07/08 06:59:09;;;;;;;1.85;1.60;;;20.30;52.30;;;;;;5043138;28;20130;-61
2022/07/08 07:01:36;;;;;;;3.75;1.88;;;20.20;52.40;;;;;;5046995;28;20106;-63
2022/07/08 07:04:03;;;;;;;1.85;1.75;;;20.10;52.50;;;;;;5039855;28;20110;-63
2022/07/08 07:06:31;;;;;;;2.72;1.77;;;20.10;52.50;;;;;;5038942;28;20064;-65
2022/07/08 07:08:59;;;;;;;1.90;1.80;;;20.00;53.50;;;;;;5041441;28;20048;-65
2022/07/08 07:11:26;;;;;;;2.08;1.98;;;20.00;54.10;;;;;;5042368;28;20084;-65
2022/07/08 07:13:53;;;;;;;1.60;1.50;;;20.00;53.80;;;;;;5038129;28;22021;-65
2022/07/08 07:16:20;;;;;;;2.20;2.00;;;20.00;53.50;;;;;;5039194;28;20131;-65
2022/07/08 07:18:48;;;;;;;3.60;1.70;;;20.00;53.90;;;;;;5038619;28;20042;-64
2022/07/08 07:21:15;;;;;;;2.10;2.00;;;20.00;53.80;;;;;;5038934;28;20053;-64
2022/07/08 07:23:42;;;;;;;2.47;2.25;;;20.00;53.40;;;;;;5038509;28;20090;-65
2022/07/08 07:26:09;;;;;;;3.03;2.30;;;20.00;53.40;;;;;;5041182;28;20056;-65
2022/07/08 07:28:37;;;;;;;2.38;2.17;;;20.00;53.50;;;;;;5040579;28;20464;-65
2022/07/08 07:31:04;;;;;;;2.13;2.03;;;20.00;53.20;;;;;;5036312;28;20136;-66
2022/07/08 07:33:32;;;;;;;2.38;2.17;;;20.00;53.10;;;;;;5043284;28;20041;-66
2022/07/08 07:35:59;;;;;;;2.10;2.00;;;19.90;52.90;;;;;;5042901;28;20091;-64
2022/07/08 07:38:26;;;;;;;2.00;1.75;;;20.00;53.50;;;;;;5046497;28;20084;-62
2022/07/08 07:40:54;;;;;;;2.20;1.83;;;20.00;53.80;;;;;;5041561;28;20063;-61
2022/07/08 07:43:21;;;;;;;3.20;1.90;;;20.00;53.50;;;;;;5040580;28;20055;-62
2022/07/08 07:45:49;;;;;;;3.00;1.83;;;19.90;53.20;;;;;;5039494;28;20048;-61
2022/07/08 07:48:16;;;;;;;2.45;2.28;;;19.90;53.20;;;;;;5039857;28;20044;-62
2022/07/08 07:50:44;;;;;;;2.00;1.90;;;19.90;53.40;;;;;;5042225;28;20061;-63
2022/07/08 07:53:12;;;;;;;2.22;2.03;;;19.90;53.40;;;;;;5041416;28;20398;-61
2022/07/08 07:55:39;;;;;;;1.83;1.73;;;19.80;53.00;;;;;;5043500;28;20044;-62
2022/07/08 07:58:07;;;;;;;2.60;2.40;;;19.80;53.20;;;;;;5044674;28;20554;-60
2022/07/08 08:00:34;;;;;;;2.50;2.30;;;19.80;53.20;;;;;;5039673;28;20049;-61
2022/07/08 08:03:02;;;;;;;2.88;1.92;;;19.80;53.70;;;;;;5044470;28;20468;-62
2022/07/08 08:05:29;;;;;;;2.25;2.00;;;19.80;54.40;;;;;;5042968;28;20386;-61
2022/07/08 08:07:56;;;;;;;2.28;2.00;;;19.90;54.80;;;;;;5044062;28;20064;-62
2022/07/08 08:10:24;;;;;;;2.10;2.00;;;19.90;54.20;;;;;;5044749;28;20040;-63
2022/07/08 08:12:51;;;;;;;2.10;1.90;;;19.90;53.70;;;;;;5042325;28;20063;-62
2022/07/08 08:15:18;;;;;;;2.17;2.05;;;19.90;53.90;;;;;;5035711;28;20052;-62
2022/07/08 08:17:45;;;;;;;2.50;2.30;;;19.80;54.30;;;;;;5040123;28;20079;-62
2022/07/08 08:20:13;;;;;;;1.90;1.80;;;19.80;54.10;;;;;;5042403;28;20049;-63
2022/07/08 08:22:40;;;;;;;1.73;1.63;;;19.90;53.90;;;;;;5039003;28;20433;-60
2022/07/08 08:25:28;;;;;;;2.28;2.10;;;19.90;54.30;;;;;;5044473;28;20136;-63
2022/07/08 08:27:56;;;;;;;1.88;1.77;;;19.90;53.90;;;;;;5042490;28;20068;-63
2022/07/08 08:30:23;;;;;;;4.00;2.15;;;19.90;54.00;;;;;;5044542;28;20051;-62
2022/07/08 08:32:52;;;;;;;3.20;2.33;;;19.90;53.90;;;;;;5041017;28;20049;-61
2022/07/08 08:35:19;;;;;;;2.63;2.40;;;19.90;53.80;;;;;;5042127;28;20106;-61
2022/07/08 08:37:46;;;;;;;4.07;2.40;;;19.90;54.00;;;;;;5048024;28;20070;-63
2022/07/08 08:40:14;;;;;;;5.78;2.83;;;19.90;53.80;;;;;;5047382;28;20305;-66
2022/07/08 08:42:42;;;;;;;3.15;2.50;;;19.90;53.90;;;;;;5042716;28;20140;-65
2022/07/08 08:45:10;;;;;;;3.22;2.30;;;19.90;54.00;;;;;;5040133;28;20130;-62
2022/07/08 08:47:38;;;;;;;3.88;2.55;;;20.00;54.30;;;;;;5041767;28;20056;-62
2022/07/08 08:52:56;;;;;;;5.20;2.45;;;20.00;54.40;;;;;;5039257;28;20045;-64
2022/07/08 08:55:31;;;;;;;2.45;2.35;;;20.10;54.20;;;;;;5072546;28;20051;-61
2022/07/08 08:58:01;;;;;;;2.70;2.20;;;20.10;54.00;;;;;;5039196;28;20037;-61
2022/07/08 09:00:29;;;;;;;2.47;2.28;;;20.10;53.80;;;;;;5040550;28;20122;-62
2022/07/08 09:02:58;;;;;;;2.10;2.00;;;20.20;54.00;;;;;;5042108;28;20044;-61
2022/07/08 09:05:27;;;;;;;2.22;2.00;;;20.20;53.90;;;;;;5044541;28;20059;-61
2022/07/08 09:07:56;;;;;;;6.13;2.97;;;20.30;54.00;;;;;;5040628;28;20094;-61
2022/07/08 09:10:24;;;;;;;2.70;2.50;;;20.30;54.00;;;;;;5042273;28;20048;-61
2022/07/08 09:13:10;;;;;;;10.63;3.47;;;20.20;53.80;;;;;;5037626;28;20044;-63
2022/07/08 09:15:44;;;;;;;3.17;2.90;;;20.30;53.60;;;;;;5038464;28;20480;-62
2022/07/08 09:18:16;;;;;;;5.43;2.58;;;20.30;54.00;;;;;;5042811;28;20535;-61
2022/07/08 09:20:47;;;;;;;2.90;2.70;;;20.30;53.90;;;;;;5038816;28;20781;-61
2022/07/08 09:23:17;;;;;;;2.90;2.65;;;20.20;53.80;;;;;;5043698;28;20103;-62
2022/07/08 09:25:50;;;;;;;2.85;2.63;;;20.30;53.70;;;;;;5043088;28;20094;-62
2022/07/08 09:28:36;;;;;;;3.25;2.95;;;20.30;53.90;;;;;;5035948;28;20494;-62
2022/07/08 09:31:12;;;;;;;3.25;2.95;;;20.30;53.50;;;;;;5039366;28;20049;-62
2022/07/08 09:33:42;;;;;;;3.47;2.72;;;20.30;53.70;;;;;;5036633;28;20045;-64
2022/07/08 09:36:10;;;;;;;2.42;2.33;;;20.30;53.70;;;;;;5034776;28;20494;-62
2022/07/08 09:38:40;;;;;;;4.22;2.30;;;20.30;53.50;;;;;;5069523;28;20053;-61
2022/07/08 09:41:09;;;;;;;3.85;2.65;;;20.30;53.30;;;;;;5038957;28;20072;-62
2022/07/08 09:43:44;;;;;;;2.70;2.47;;;20.20;53.60;;;;;;5039133;28;20048;-61
2022/07/08 09:46:12;;;;;;;2.40;2.17;;;20.20;53.50;;;;;;5038207;28;20584;-63
2022/07/08 09:48:40;;;;;;;3.08;2.80;;;20.20;53.60;;;;;;5035553;28;20056;-62
2022/07/08 09:51:08;;;;;;;7.85;2.47;;;20.20;53.00;;;;;;5039624;28;20041;-63
2022/07/08 09:53:37;;;;;;;3.85;3.00;;;20.20;53.30;;;;;;5040682;28;20049;-63
2022/07/08 09:56:05;;;;;;;4.75;2.53;;;20.20;53.60;;;;;;5034481;28;20134;-65
2022/07/08 09:58:33;;;;;;;12.63;3.00;;;20.20;53.80;;;;;;5041675;28;20048;-63
2022/07/08 10:01:01;;;;;;;5.95;3.20;;;20.20;53.70;;;;;;5034974;28;20504;-65
2022/07/08 10:03:29;;;;;;;13.60;2.65;;;20.20;53.80;;;;;;5042600;28;20041;-65
2022/07/08 10:05:58;;;;;;;9.80;3.00;;;20.20;53.90;;;;;;5039555;28;20049;-65
2022/07/08 10:08:26;;;;;;;9.75;2.97;;;20.30;54.10;;;;;;5043287;28;20102;-65
2022/07/08 10:10:57;;;;;;;6.93;2.33;;;20.30;53.80;;;;;;5043588;28;20077;-65
2022/07/08 10:13:26;;;;;;;3.10;2.22;;;20.40;53.90;;;;;;5036595;28;20053;-65
2022/07/08 10:15:57;;;;;;;6.18;2.90;;;20.50;54.00;;;;;;5044769;28;20124;-65
2022/07/08 10:18:35;;;;;;;3.95;2.28;;;20.60;53.80;;;;;;5041718;28;20504;-65
2022/07/08 10:21:05;;;;;;;3.85;2.17;;;20.70;53.50;;;;;;5026259;28;20067;-66
2022/07/08 10:23:51;;;;;;;5.23;2.53;;;20.70;53.30;;;;;;5044095;28;20110;-65
2022/07/08 10:26:31;;;;;;;7.43;2.85;;;20.80;53.20;;;;;;5041326;28;20309;-66
2022/07/08 10:29:10;;;;;;;3.13;2.38;;;20.80;52.80;;;;;;5041142;28;20048;-66
2022/07/08 10:31:47;;;;;;;7.30;2.63;;;20.90;52.80;;;;;;5044177;28;20225;-65
2022/07/08 10:34:19;;;;;;;5.95;2.67;;;20.90;52.70;;;;;;5041216;28;20045;-66
2022/07/08 10:36:53;;;;;;;3.63;2.47;;;20.90;52.80;;;;;;5043695;28;20075;-65
2022/07/08 10:39:25;;;;;;;3.53;1.92;;;20.90;52.40;;;;;;5041954;28;20366;-65
2022/07/08 10:42:02;;;;;;;4.90;2.33;;;21.00;52.70;;;;;;5045795;28;20047;-64
2022/07/08 10:44:49;;;;;;;4.93;2.63;;;21.00;52.50;;;;;;5044141;28;20122;-64
2022/07/08 10:47:28;;;;;;;6.68;2.50;;;21.00;52.30;;;;;;5044568;28;20098;-64
2022/07/08 10:50:05;;;;;;;5.25;2.15;;;21.00;52.00;;;;;;5048070;28;20124;-63
2022/07/08 10:52:41;;;;;;;6.97;2.30;;;21.00;52.40;;;;;;5037959;28;20493;-63
2022/07/08 10:55:13;;;;;;;3.58;2.10;;;21.00;52.10;;;;;;5042681;28;20088;-64
2022/07/08 10:57:58;;;;;;;4.07;2.25;;;21.10;52.20;;;;;;5041896;28;20075;-64
2022/07/08 11:00:26;;;;;;;4.13;1.88;;;21.10;52.10;;;;;;5041840;28;20099;-64
2022/07/08 11:02:54;;;;;;;6.35;2.38;;;21.10;51.90;;;;;;5036175;28;20490;-64
2022/07/08 11:05:39;;;;;;;3.72;2.47;;;21.10;52.10;;;;;;5043843;28;20612;-64
2022/07/08 11:08:25;;;;;;;2.53;2.33;;;21.10;52.10;;;;;;5070604;28;20053;-65
2022/07/08 11:10:53;;;;;;;2.88;2.17;;;21.10;52.10;;;;;;5040701;28;20057;-65
2022/07/08 11:13:22;;;;;;;2.53;2.33;;;21.10;52.10;;;;;;5041161;28;20060;-64
2022/07/08 11:15:50;;;;;;;2.90;2.60;;;21.00;52.20;;;;;;5041568;28;20138;-65
2022/07/08 11:18:22;;;;;;;2.53;2.33;;;21.00;52.40;;;;;;5037890;28;20080;-63
2022/07/08 11:20:50;;;;;;;4.05;2.10;;;21.00;52.60;;;;;;5039284;28;20053;-64
2022/07/08 11:23:20;;;;;;;2.38;2.17;;;21.00;52.70;;;;;;5039373;28;20461;-63
2022/07/08 11:25:56;;;;;;;4.50;2.42;;;20.90;52.80;;;;;;5043624;28;20061;-63
2022/07/08 11:28:24;;;;;;;3.53;2.20;;;20.90;52.90;;;;;;5042505;28;20040;-63
2022/07/08 11:30:53;;;;;;;2.50;2.30;;;20.80;53.10;;;;;;5041605;28;20117;-64
2022/07/08 11:33:38;;;;;;;3.80;2.42;;;20.80;53.20;;;;;;5041783;28;20049;-65
2022/07/08 11:36:17;;;;;;;3.80;2.45;;;20.90;52.90;;;;;;5044111;28;20114;-62
2022/07/08 11:38:46;;;;;;;2.50;2.30;;;20.90;53.10;;;;;;5047621;28;20417;-62
2022/07/08 11:41:13;;;;;;;2.55;2.45;;;20.90;53.10;;;;;;5041068;28;20053;-60
2022/07/08 11:43:42;;;;;;;3.10;2.25;;;20.90;53.50;;;;;;5043924;28;20053;-62
2022/07/08 11:46:21;;;;;;;2.22;2.13;;;20.90;53.40;;;;;;5037890;28;20053;-62
2022/07/08 11:48:49;;;;;;;3.75;2.40;;;20.90;53.50;;;;;;5043382;28;20037;-60
2022/07/08 11:51:17;;;;;;;2.05;1.95;;;20.90;53.70;;;;;;5039888;28;20962;-60
2022/07/08 11:53:45;;;;;;;2.65;2.25;;;21.00;53.40;;;;;;5036946;28;20502;-60
2022/07/08 11:56:13;;;;;;;3.88;2.22;;;21.00;53.90;;;;;;5037717;28;20049;-60
2022/07/08 11:58:41;;;;;;;3.78;2.10;;;21.10;53.60;;;;;;5043397;28;20444;-59
2022/07/08 12:01:09;;;;;;;2.35;2.15;;;21.10;53.40;;;;;;5042034;28;20201;-60
2022/07/08 12:03:37;;;;;;;2.58;2.35;;;21.00;53.40;;;;;;5044006;28;20088;-61
2022/07/08 12:06:04;;;;;;;2.63;2.53;;;21.00;53.60;;;;;;5039027;28;20045;-61
2022/07/08 12:08:39;;;;;;;3.47;2.80;;;21.00;53.60;;;;;;5040647;28;20056;-62
2022/07/08 12:11:18;;;;;;;3.83;2.40;;;21.00;53.30;;;;;;5035631;28;20056;-61
2022/07/08 12:13:48;;;;;;;2.78;2.47;;;21.10;52.90;;;;;;5041245;28;20060;-61
2022/07/08 12:16:30;;;;;;;2.53;2.35;;;21.10;53.30;;;;;;5042729;28;20532;-62
2022/07/08 12:18:59;;;;;;;2.47;2.28;;;21.00;52.60;;;;;;5043402;28;20140;-61
2022/07/08 12:21:26;;;;;;;2.72;2.53;;;21.00;53.00;;;;;;5040105;28;20049;-62
2022/07/08 12:23:57;;;;;;;2.75;2.50;;;21.00;53.10;;;;;;5036777;28;20049;-61
2022/07/08 12:26:25;;;;;;;2.97;2.65;;;20.90;53.50;;;;;;5043039;28;20473;-61
2022/07/08 12:28:53;;;;;;;2.70;2.38;;;20.90;53.20;;;;;;5045401;28;20360;-61
2022/07/08 12:31:37;;;;;;;3.13;2.53;;;20.80;53.70;;;;;;5045176;28;20077;-61
2022/07/08 12:34:08;;;;;;;7.25;2.60;;;20.80;53.60;;;;;;5045775;28;20049;-62
2022/07/08 12:36:35;;;;;;;3.47;2.17;;;20.70;53.70;;;;;;5044900;28;20131;-61
2022/07/08 12:39:17;;;;;;;3.38;2.75;;;20.80;53.70;;;;;;5046228;28;20053;-61
2022/07/08 12:41:59;;;;;;;2.70;2.50;;;20.80;53.60;;;;;;5044866;28;20284;-62
2022/07/08 12:44:28;;;;;;;2.88;2.58;;;20.80;53.80;;;;;;5045221;28;20056;-62
2022/07/08 12:46:56;;;;;;;2.08;1.98;;;20.80;53.60;;;;;;5044114;28;20049;-61
2022/07/08 12:49:24;;;;;;;2.92;2.35;;;20.90;53.50;;;;;;5044951;28;20037;-62
2022/07/08 12:51:52;;;;;;;4.78;2.33;;;20.90;53.50;;;;;;5044334;28;20053;-61
2022/07/08 12:54:19;;;;;;;3.70;2.40;;;20.90;53.50;;;;;;5044582;28;20457;-61
2022/07/08 12:56:47;;;;;;;2.45;2.35;;;21.00;53.50;;;;;;5044071;28;20090;-61
2022/07/08 12:59:14;;;;;;;5.45;2.40;;;20.90;53.60;;;;;;5044791;28;20103;-61